Time;durP1;ratioP1;P1;durP2;ratioP2;P2;SDS_P1;SDS_P2;PMS_P1;PMS_P2;Temp;Humidity;BMP_temperature;BMP_pressure;BME280_temperature;BME280_humidity;BME280_pressure;Samples;Min_cycle;Max_cycle;Signal;HPM_P1;HPM_P2
2023/08/13 00:00:45;;;;;;;6.50;5.30;;;;;;;18.83;69.69;99781.81;6264749;22;20342;-88
2023/08/13 00:03:10;;;;;;;6.32;4.45;;;;;;;18.78;69.76;99773.75;6264005;22;20092;-89
2023/08/13 00:05:36;;;;;;;7.10;4.68;;;;;;;18.65;69.69;99772.69;6263793;22;19998;-89
2023/08/13 00:08:01;;;;;;;8.60;5.10;;;;;;;18.61;70.37;99755.34;6264568;22;20003;-89
2023/08/13 00:10:35;;;;;;;7.30;4.15;;;;;;;18.63;70.83;99771.41;6263965;22;20477;-87
2023/08/13 00:13:01;;;;;;;5.65;4.07;;;;;;;18.49;71.00;99774.19;6264925;22;19995;-90
2023/08/13 00:15:26;;;;;;;5.38;4.20;;;;;;;18.41;70.58;99748.50;6265351;22;20009;-90
2023/08/13 00:17:52;;;;;;;5.00;3.92;;;;;;;18.40;71.15;99767.88;6264928;22;19998;-89
2023/08/13 00:20:17;;;;;;;4.90;3.92;;;;;;;18.37;71.00;99753.75;6267204;22;20002;-89
2023/08/13 00:22:46;;;;;;;8.80;4.05;;;;;;;18.27;70.80;99745.03;6266788;22;20010;-89
2023/08/13 00:25:21;;;;;;;4.78;3.55;;;;;;;18.23;71.43;99746.78;6267054;22;20019;-89
2023/08/13 00:27:47;;;;;;;9.23;4.18;;;;;;;18.23;71.13;99758.47;6293322;22;20002;-89
2023/08/13 00:30:12;;;;;;;6.40;3.83;;;;;;;18.14;71.30;99760.34;6267974;22;19998;-89
2023/08/13 00:32:38;;;;;;;4.82;3.95;;;;;;;18.07;71.19;99747.13;6266910;22;19999;-89
2023/08/13 00:35:06;;;;;;;5.18;3.95;;;;;;;18.27;70.74;99764.91;6250844;23;20000;-89
2023/08/13 00:37:34;;;;;;;4.45;3.50;;;;;;;18.18;70.32;99736.81;6200660;23;20024;-88
2023/08/13 00:40:00;;;;;;;5.38;3.70;;;;;;;18.30;70.53;99772.50;6226348;22;20000;-90
2023/08/13 00:42:28;;;;;;;9.65;3.75;;;;;;;18.07;70.81;99741.69;6225392;23;20035;-90
2023/08/13 00:44:54;;;;;;;6.13;4.05;;;;;;;17.97;71.37;99748.19;6176913;23;20000;-90
2023/08/13 00:47:22;;;;;;;7.10;4.00;;;;;;;17.66;72.19;99733.63;6202391;23;20000;-89
2023/08/13 00:49:49;;;;;;;4.80;3.90;;;;;;;17.74;72.93;99747.34;6251058;23;20439;-89
2023/08/13 00:52:18;;;;;;;5.25;4.00;;;;;;;17.78;72.17;99758.41;6200110;23;20007;-87
2023/08/13 00:54:43;;;;;;;7.30;4.03;;;;;;;17.61;72.24;99736.47;6200221;23;20000;-87
2023/08/13 00:57:09;;;;;;;5.60;4.20;;;;;;;17.67;72.45;99755.09;6174567;23;20000;-87
2023/08/13 00:59:49;;;;;;;4.72;3.78;;;;;;;17.56;72.67;99756.44;6175007;23;20004;-87
2023/08/13 01:02:15;;;;;;;5.65;4.35;;;;;;;17.51;72.80;99743.72;6175253;23;20012;-87
2023/08/13 01:04:41;;;;;;;12.88;9.88;;;;;;;17.56;72.94;99742.84;6173904;23;20011;-87
2023/08/13 01:07:24;;;;;;;4.70;3.85;;;;;;;17.63;73.13;99773.16;6198990;23;20004;-86
2023/08/13 01:10:02;;;;;;;6.93;4.00;;;;;;;17.69;73.31;99768.41;6199189;23;20004;-88
2023/08/13 01:12:55;;;;;;;5.00;3.83;;;;;;;17.60;73.30;99753.91;6271318;22;19999;-88
2023/08/13 01:15:33;;;;;;;4.90;3.70;;;;;;;17.49;73.38;99753.31;6294769;22;19998;-88
2023/08/13 01:18:01;;;;;;;7.07;4.15;;;;;;;17.54;73.41;99767.63;6267352;22;20363;-88
2023/08/13 01:20:45;;;;;;;9.15;4.22;;;;;;;17.38;73.62;99745.38;6266647;22;20055;-88
2023/08/13 01:23:30;;;;;;;6.85;4.40;;;;;;;17.36;73.95;99755.75;6266696;22;20071;-88
2023/08/13 01:26:03;;;;;;;6.43;4.38;;;;;;;17.45;73.92;99764.03;6275301;22;20015;-88
2023/08/13 01:28:49;;;;;;;12.82;4.68;;;;;;;17.43;74.34;99777.16;6228797;22;20299;-87
2023/08/13 01:31:24;;;;;;;7.70;4.68;;;;;;;17.33;74.50;99769.19;6227724;22;20332;-89
2023/08/13 01:33:50;;;;;;;6.38;4.43;;;;;;;17.17;74.43;99750.44;6230652;22;20335;-87
2023/08/13 01:36:17;;;;;;;6.13;4.50;;;;;;;17.27;74.34;99760.31;6202663;22;20000;-86
2023/08/13 01:38:49;;;;;;;6.53;4.97;;;;;;;17.16;74.25;99742.56;6226751;22;20082;-87
2023/08/13 01:41:17;;;;;;;;;;;;;;;17.30;74.43;99769.78;6227435;22;20003;-86
2023/08/13 01:43:45;;;;;;;5.38;4.68;;;;;;;17.12;74.39;99736.94;6226353;22;20341;-84
2023/08/13 01:46:11;;;;;;;8.68;5.20;;;;;;;17.26;74.61;99763.31;6228171;22;20000;-86
2023/08/13 01:48:49;;;;;;;8.85;4.53;;;;;;;17.18;74.99;99751.22;6226738;22;20027;-87
2023/08/13 01:51:17;;;;;;;6.85;5.00;;;;;;;17.09;75.12;99742.97;6228180;22;20423;-85
2023/08/13 01:53:46;;;;;;;6.57;4.65;;;;;;;17.24;75.02;99773.72;6202523;22;20082;-87
2023/08/13 01:56:14;;;;;;;6.32;4.35;;;;;;;17.04;75.41;99745.81;6207901;22;20078;-87
2023/08/13 01:58:40;;;;;;;9.50;4.78;;;;;;;17.12;74.93;99758.72;6233022;22;19999;-87
2023/08/13 02:01:05;;;;;;;7.13;4.50;;;;;;;16.98;75.15;99747.00;6233494;22;20006;-87
2023/08/13 02:03:36;;;;;;;6.05;4.68;;;;;;;16.84;75.25;99732.59;6232455;22;20003;-86
2023/08/13 02:06:02;;;;;;;6.05;4.68;;;;;;;16.94;75.36;99746.81;6233976;22;20388;-87
2023/08/13 02:08:28;;;;;;;5.18;4.05;;;;;;;16.94;75.40;99760.41;6233504;22;20003;-87
2023/08/13 02:10:56;;;;;;;4.70;3.75;;;;;;;16.73;74.86;99734.69;6232960;22;20049;-86
2023/08/13 02:13:21;;;;;;;6.25;4.35;;;;;;;16.55;75.62;99723.56;6234122;22;20002;-87
2023/08/13 02:15:47;;;;;;;9.32;4.20;;;;;;;16.63;76.04;99757.41;6232560;22;19999;-86
2023/08/13 02:18:13;;;;;;;4.97;3.90;;;;;;;16.64;75.65;99752.78;6232562;22;20074;-87
2023/08/13 02:20:40;;;;;;;6.68;4.38;;;;;;;16.55;76.59;99747.22;6232569;22;19999;-87
2023/08/13 02:23:06;;;;;;;4.80;4.30;;;;;;;16.56;75.84;99749.66;6259165;22;20346;-86
2023/08/13 02:25:34;;;;;;;5.47;4.35;;;;;;;16.63;76.11;99762.06;6236111;22;20016;-87
2023/08/13 02:28:06;;;;;;;7.10;4.93;;;;;;;16.82;75.70;99778.31;6258524;22;19999;-87
2023/08/13 02:30:31;;;;;;;;;;;;;;;16.80;75.59;99783.22;6259503;22;19999;-87
2023/08/13 02:33:00;;;;;;;7.07;4.03;;;;;;;16.62;76.11;99758.53;6283010;22;20330;-88
2023/08/13 02:35:25;;;;;;;6.20;4.68;;;;;;;16.72;75.52;99771.91;6259456;22;20011;-88
2023/08/13 02:37:51;;;;;;;4.80;4.05;;;;;;;16.68;75.83;99761.94;6258116;22;20007;-87
2023/08/13 02:40:19;;;;;;;5.47;3.88;;;;;;;16.76;75.35;99774.84;6257801;22;20003;-87
2023/08/13 02:42:45;;;;;;;5.82;4.20;;;;;;;16.69;75.66;99767.09;6259497;22;20007;-88
2023/08/13 02:45:13;;;;;;;5.30;3.80;;;;;;;16.78;75.10;99786.25;6258792;22;20022;-89
2023/08/13 02:47:41;;;;;;;8.38;4.07;;;;;;;16.56;75.21;99757.81;6259224;22;20417;-87
2023/08/13 02:50:07;;;;;;;5.57;4.22;;;;;;;16.63;75.31;99772.94;6282900;22;20007;-86
2023/08/13 02:52:35;;;;;;;7.90;4.28;;;;;;;16.55;75.65;99768.97;6257093;22;20031;-87
2023/08/13 02:55:00;;;;;;;6.30;3.75;;;;;;;16.57;75.77;99755.88;6257136;22;19999;-87
2023/08/13 02:57:28;;;;;;;7.55;4.30;;;;;;;16.53;75.21;99758.38;6282903;22;20448;-86
2023/08/13 02:59:56;;;;;;;10.10;4.65;;;;;;;16.66;75.37;99773.13;6257796;22;20448;-87
2023/08/13 03:02:22;;;;;;;5.95;3.90;;;;;;;16.69;74.63;99782.59;6283720;22;20007;-87
2023/08/13 03:04:53;;;;;;;5.00;3.92;;;;;;;16.73;74.30;99783.63;6258188;22;19999;-87
2023/08/13 03:07:18;;;;;;;5.70;3.80;;;;;;;16.88;74.05;99801.59;6257235;22;20003;-87
2023/08/13 03:09:44;;;;;;;10.27;4.28;;;;;;;16.71;74.00;99772.25;6257751;22;20245;-85
2023/08/13 03:12:10;;;;;;;6.70;4.32;;;;;;;16.70;74.27;99774.13;6259025;22;20086;-86
2023/08/13 03:14:36;;;;;;;5.10;3.63;;;;;;;16.71;73.89;99773.03;6257753;22;19999;-87
2023/08/13 03:17:04;;;;;;;4.80;3.92;;;;;;;16.74;74.35;99774.34;6257599;22;19999;-86
2023/08/13 03:19:30;;;;;;;4.80;4.20;;;;;;;16.69;74.62;99777.97;6259001;22;19995;-86
2023/08/13 03:21:55;;;;;;;4.78;4.10;;;;;;;16.73;74.66;99803.47;6308038;22;20014;-86
2023/08/13 03:24:21;;;;;;;4.95;3.90;;;;;;;16.61;74.82;99781.38;6282180;22;20496;-86
2023/08/13 03:26:50;;;;;;;6.45;4.60;;;;;;;16.45;74.83;99769.94;6281401;22;20019;-86
2023/08/13 03:29:15;;;;;;;6.60;3.85;;;;;;;16.54;75.40;99795.34;6284438;22;20030;-85
2023/08/13 03:31:52;;;;;;;5.90;4.05;;;;;;;16.36;75.47;99791.56;6257335;22;19999;-86
2023/08/13 03:34:17;;;;;;;7.30;3.80;;;;;;;16.27;75.84;99778.94;6284521;22;20433;-86
2023/08/13 03:36:43;;;;;;;7.38;4.70;;;;;;;16.25;76.08;99797.44;6258104;22;20003;-86
2023/08/13 03:39:08;;;;;;;6.45;4.20;;;;;;;16.26;76.09;99812.66;6257449;22;20060;-86
2023/08/13 03:41:37;;;;;;;7.05;4.70;;;;;;;16.01;76.69;99783.97;6283341;22;19996;-85
2023/08/13 03:44:03;;;;;;;6.10;4.25;;;;;;;16.13;76.81;99812.31;6282686;22;20426;-85
2023/08/13 03:46:31;;;;;;;5.93;4.15;;;;;;;16.16;76.34;99806.31;6257540;22;19999;-85
2023/08/13 03:48:56;;;;;;;5.75;4.30;;;;;;;16.21;76.11;99801.84;6283124;22;19999;-85
2023/08/13 03:51:22;;;;;;;6.72;4.30;;;;;;;16.03;76.36;99782.56;6257952;22;20056;-87
2023/08/13 03:53:50;;;;;;;5.30;4.40;;;;;;;16.19;76.68;99809.53;6257815;22;20003;-87
2023/08/13 03:56:16;;;;;;;7.85;4.28;;;;;;;16.13;76.46;99798.72;6283063;22;20117;-86
2023/08/13 03:58:44;;;;;;;8.38;5.20;;;;;;;16.13;76.38;99806.88;6257538;22;19999;-87
2023/08/13 04:01:10;;;;;;;7.05;4.50;;;;;;;16.05;75.97;99788.53;6257789;22;20430;-85
2023/08/13 04:03:36;;;;;;;7.25;4.43;;;;;;;16.19;76.24;99810.31;6282928;22;20006;-85
2023/08/13 04:06:01;;;;;;;6.80;4.57;;;;;;;16.24;76.05;99810.22;6257021;22;20002;-86
2023/08/13 04:08:27;;;;;;;5.32;4.47;;;;;;;16.21;76.36;99796.44;6258106;22;20039;-86
2023/08/13 04:10:58;;;;;;;8.27;4.97;;;;;;;16.23;75.82;99800.47;6256963;22;20007;-86
2023/08/13 04:13:24;;;;;;;7.65;4.85;;;;;;;16.34;75.76;99820.94;6283026;22;20029;-85
2023/08/13 04:15:52;;;;;;;8.40;5.88;;;;;;;16.38;75.59;99812.22;6256082;22;19999;-85
2023/08/13 04:18:18;;;;;;;8.27;5.85;;;;;;;16.47;75.65;99826.75;6256789;22;20449;-86
2023/08/13 04:20:43;;;;;;;14.02;10.05;;;;;;;16.61;75.44;99840.38;6257378;22;20003;-86
2023/08/13 04:23:10;;;;;;;21.40;13.18;;;;;;;16.50;74.98;99820.72;6258164;22;20064;-86
2023/08/13 04:25:35;;;;;;;20.92;15.90;;;;;;;16.59;75.67;99821.66;6283053;22;20023;-86
2023/08/13 04:28:09;;;;;;;17.70;11.05;;;;;;;16.65;74.54;99831.34;6257551;22;20033;-86
2023/08/13 04:30:36;;;;;;;12.38;8.30;;;;;;;16.68;74.57;99827.22;6257702;22;20342;-86
2023/08/13 04:33:02;;;;;;;9.43;6.55;;;;;;;16.58;75.09;99806.44;6307796;22;19995;-86
2023/08/13 04:35:28;;;;;;;9.85;5.82;;;;;;;16.66;74.66;99815.81;6257724;22;20000;-86
2023/08/13 04:37:54;;;;;;;10.10;6.15;;;;;;;16.75;74.63;99842.03;6283931;22;20022;-85
2023/08/13 04:40:30;;;;;;;9.60;6.18;;;;;;;16.75;74.72;99830.38;6259547;22;19999;-86
2023/08/13 04:42:55;;;;;;;9.00;6.80;;;;;;;16.90;74.65;99851.06;6308690;22;20019;-86
2023/08/13 04:45:21;;;;;;;11.60;6.68;;;;;;;16.90;74.23;99845.63;6256086;22;20386;-86
2023/08/13 04:48:09;;;;;;;13.25;7.45;;;;;;;16.95;74.13;99856.41;6283168;22;20141;-87
2023/08/13 04:51:07;;;;;;;8.73;7.03;;;;;;;17.09;73.58;99854.53;6310061;22;20018;-86
2023/08/13 04:53:33;;;;;;;7.70;6.40;;;;;;;16.99;74.14;99830.22;6220192;23;20058;-85
2023/08/13 04:55:58;;;;;;;10.75;6.43;;;;;;;17.03;73.35;99828.53;6169995;23;20039;-87
2023/08/13 04:58:27;;;;;;;11.38;6.35;;;;;;;17.06;73.21;99825.22;6170875;23;20011;-87
2023/08/13 05:00:52;;;;;;;7.43;6.00;;;;;;;17.30;73.15;99841.34;6195466;23;20004;-85
2023/08/13 05:03:18;;;;;;;9.10;6.45;;;;;;;17.54;72.86;99856.69;6194564;23;20058;-86
2023/08/13 05:05:45;;;;;;;11.90;6.60;;;;;;;17.51;72.50;99835.50;6220954;23;20091;-86
2023/08/13 05:08:11;;;;;;;11.00;6.00;;;;;;;17.66;72.29;99842.53;6197439;23;20000;-86
2023/08/13 05:10:39;;;;;;;8.30;5.82;;;;;;;17.62;71.70;99842.38;6223240;23;20000;-87
2023/08/13 05:13:07;;;;;;;8.68;6.45;;;;;;;17.67;71.07;99838.72;6173189;23;19992;-86
2023/08/13 05:15:34;;;;;;;8.68;6.25;;;;;;;17.81;70.58;99836.78;6196385;23;20055;-87
2023/08/13 05:17:59;;;;;;;7.93;5.78;;;;;;;17.90;71.00;99848.59;6196751;23;20011;-86
2023/08/13 05:20:34;;;;;;;11.40;6.80;;;;;;;18.08;71.06;99859.69;6196602;23;20082;-86
2023/08/13 05:23:00;;;;;;;7.07;6.35;;;;;;;18.05;70.10;99855.63;6196055;23;20011;-87
2023/08/13 05:25:26;;;;;;;9.48;6.55;;;;;;;17.94;69.90;99832.47;6301548;22;20484;-87
2023/08/13 05:27:55;;;;;;;9.70;7.00;;;;;;;18.14;69.23;99844.84;6282812;22;20003;-87
2023/08/13 05:30:24;;;;;;;11.52;8.18;;;;;;;18.18;69.15;99845.81;6256504;22;20010;-85
2023/08/13 05:32:50;;;;;;;11.98;9.20;;;;;;;18.44;68.90;99853.41;6259936;22;20003;-86
2023/08/13 05:35:21;;;;;;;12.57;9.27;;;;;;;18.54;67.96;99858.63;6259177;22;20003;-86
2023/08/13 05:37:49;;;;;;;12.30;8.90;;;;;;;18.61;68.17;99866.38;6284647;22;20010;-86
2023/08/13 05:40:15;;;;;;;11.55;8.60;;;;;;;18.65;67.86;99851.78;6259629;22;20003;-86
2023/08/13 05:42:41;;;;;;;10.38;7.88;;;;;;;18.90;67.25;99864.00;6220733;23;20012;-89
2023/08/13 05:45:10;;;;;;;10.98;7.82;;;;;;;18.90;67.03;99855.81;6192090;23;20351;-86
2023/08/13 05:47:41;;;;;;;11.40;7.80;;;;;;;19.03;67.06;99859.63;6167408;23;20035;-87
2023/08/13 05:50:09;;;;;;;11.55;8.13;;;;;;;19.00;66.68;99857.50;6169222;23;20017;-87
2023/08/13 05:52:35;;;;;;;9.65;7.70;;;;;;;19.11;65.90;99856.13;6191775;23;20428;-87
2023/08/13 05:55:08;;;;;;;9.95;6.88;;;;;;;19.45;65.04;99872.97;6166987;23;20008;-86
2023/08/13 05:57:34;;;;;;;7.82;6.55;;;;;;;19.34;65.18;99850.56;6166275;23;20032;-86
2023/08/13 06:00:00;;;;;;;10.23;6.25;;;;;;;19.66;64.85;99878.66;6167540;23;20512;-86
2023/08/13 06:02:26;;;;;;;12.60;8.60;;;;;;;19.72;63.97;99858.31;6166261;23;20008;-86
2023/08/13 06:04:59;;;;;;;9.75;7.97;;;;;;;19.74;63.81;99845.13;6166053;23;20032;-86
2023/08/13 06:07:28;;;;;;;9.45;7.80;;;;;;;19.95;63.47;99865.25;6197128;23;20004;-96
2023/08/13 06:09:54;;;;;;;10.65;8.18;;;;;;;19.96;63.93;99863.31;6174372;23;20059;-93
2023/08/13 06:12:25;;;;;;;13.07;8.02;;;;;;;19.88;64.05;99853.19;6197028;23;20005;-94
2023/08/13 06:14:55;;;;;;;9.43;7.90;;;;;;;20.04;63.58;99865.25;6227337;23;19990;-94
2023/08/13 06:17:24;;;;;;;11.13;8.07;;;;;;;20.22;63.48;99862.56;6266025;22;20030;-93
2023/08/13 06:19:58;;;;;;;14.60;10.52;;;;;;;20.24;63.25;99858.38;6292604;22;20025;-94
2023/08/13 06:22:26;;;;;;;10.05;8.18;;;;;;;20.45;62.46;99868.69;6295168;22;20037;-94
2023/08/13 06:24:53;;;;;;;14.85;7.35;;;;;;;20.66;61.66;99874.31;6294513;22;20023;-96
2023/08/13 06:27:30;;;;;;;10.00;7.18;;;;;;;20.64;62.53;99871.09;6301780;22;20050;-96
2023/08/13 06:30:00;;;;;;;11.02;7.80;;;;;;;20.68;61.67;99875.59;6306220;22;20020;-94
2023/08/13 06:32:36;;;;;;;10.02;7.05;;;;;;;20.84;61.15;99872.38;6329923;22;20014;-96
2023/08/13 06:35:12;;;;;;;7.38;6.55;;;;;;;20.86;61.12;99856.44;6303281;22;20007;-96
2023/08/13 06:37:48;;;;;;;10.70;7.75;;;;;;;20.97;60.92;99863.16;6297553;22;20021;-93
2023/08/13 06:40:16;;;;;;;10.95;7.15;;;;;;;21.07;60.40;99859.28;6272230;22;20037;-94
2023/08/13 06:43:00;;;;;;;10.23;6.43;;;;;;;21.10;59.70;99859.41;6295960;22;19999;-95
2023/08/13 06:45:29;;;;;;;8.38;6.03;;;;;;;21.33;59.46;99870.13;6322045;22;20024;-94
2023/08/13 06:48:21;;;;;;;7.68;6.05;;;;;;;21.49;59.53;99871.22;6270933;22;20418;-95
2023/08/13 06:50:58;;;;;;;7.63;5.45;;;;;;;21.89;59.09;99895.50;6289962;22;20025;-96
2023/08/13 06:53:27;;;;;;;6.30;5.13;;;;;;;21.79;58.32;99852.84;6272919;22;20401;-94
2023/08/13 06:56:00;;;;;;;8.98;5.05;;;;;;;21.95;58.74;99860.47;6299175;22;20054;-96
2023/08/13 06:58:41;;;;;;;8.40;5.35;;;;;;;22.09;57.20;99865.72;6302042;22;19999;-96
2023/08/13 07:01:12;;;;;;;5.63;4.82;;;;;;;22.17;56.98;99848.41;6300344;22;20353;-94
2023/08/13 07:03:51;;;;;;;;;;;;;;;;;;;;;
2023/08/13 07:06:26;;;;;;;8.90;4.60;;;;;;;22.61;55.81;99854.34;6232721;23;20023;-94
2023/08/13 07:09:01;;;;;;;6.95;4.63;;;;;;;22.89;55.91;99872.94;6229755;23;20000;-96
2023/08/13 07:11:27;;;;;;;8.07;4.85;;;;;;;22.85;55.10;99845.38;6227518;23;20008;-96
2023/08/13 07:13:57;;;;;;;6.97;4.40;;;;;;;22.91;53.55;99843.19;6229690;23;20007;-96
2023/08/13 07:16:46;;;;;;;6.00;4.53;;;;;;;23.11;53.91;99860.78;6229814;23;20004;-93
2023/08/13 07:19:29;;;;;;;6.20;4.45;;;;;;;23.20;52.68;99839.50;6224157;23;20473;-91
2023/08/13 07:21:55;;;;;;;7.13;5.05;;;;;;;23.50;52.02;99880.53;6225990;23;20019;-92
2023/08/13 07:24:20;;;;;;;5.03;3.65;;;;;;;23.40;51.22;99859.78;6225023;23;20039;-92
2023/08/13 07:26:49;;;;;;;8.38;4.30;;;;;;;23.44;51.78;99841.47;6227194;23;20024;-95
2023/08/13 07:29:19;;;;;;;6.00;4.00;;;;;;;23.60;50.85;99858.09;6200382;23;20434;-95
2023/08/13 07:31:48;;;;;;;4.80;3.47;;;;;;;23.63;49.59;99848.34;6203512;23;20000;-95
2023/08/13 07:34:14;;;;;;;3.70;3.00;;;;;;;23.80;48.58;99848.13;6229089;23;20434;-95
2023/08/13 07:36:41;;;;;;;5.75;3.30;;;;;;;23.93;47.78;99854.44;6231203;22;20067;-94
2023/08/13 07:39:09;;;;;;;10.85;3.45;;;;;;;24.07;47.35;99846.56;6290013;22;20029;-96
2023/08/13 07:41:38;;;;;;;4.30;2.70;;;;;;;24.09;44.37;99846.25;6265929;22;20072;-96
2023/08/13 07:44:37;;;;;;;4.07;2.88;;;;;;;24.35;43.74;99863.13;6292395;22;19999;-95
2023/08/13 07:47:32;;;;;;;;;;;;;;;;;;;;;
2023/08/13 07:50:13;;;;;;;2.92;2.53;;;;;;;24.44;41.98;99860.22;6317762;22;20034;-96
2023/08/13 07:52:44;;;;;;;7.05;2.40;;;;;;;24.47;41.66;99845.00;6267513;22;20001;-94
2023/08/13 07:55:10;;;;;;;;;;;;;;;24.73;41.97;99859.09;6266674;22;19995;-95
2023/08/13 07:57:39;;;;;;;3.50;2.30;;;;;;;24.76;41.79;99852.13;6292292;22;19907;-94
2023/08/13 08:00:08;;;;;;;3.22;2.38;;;;;;;24.93;39.72;99860.03;6290416;22;20014;-96
2023/08/13 08:02:37;;;;;;;3.33;2.33;;;;;;;24.92;39.96;99836.41;6265766;22;20000;-95
2023/08/13 08:05:05;;;;;;;4.65;3.20;;;;;;;25.00;40.19;99835.41;6266783;22;20026;-94
2023/08/13 08:07:31;;;;;;;4.63;2.78;;;;;;;25.03;39.36;99855.97;6263928;22;20029;-96
2023/08/13 08:09:57;;;;;;;3.38;2.25;;;;;;;24.95;39.20;99848.69;6264678;22;20007;-95
2023/08/13 08:12:23;;;;;;;4.47;2.35;;;;;;;25.04;39.48;99840.22;6265968;22;20045;-94
2023/08/13 08:14:52;;;;;;;4.05;2.50;;;;;;;25.22;39.37;99844.28;6289406;22;20002;-93
2023/08/13 08:17:18;;;;;;;4.47;2.50;;;;;;;25.19;38.89;99833.91;6266239;22;19999;-95
2023/08/13 08:19:46;;;;;;;6.00;2.63;;;;;;;25.24;39.49;99830.16;6289783;22;20003;-95
2023/08/13 08:22:11;;;;;;;4.07;2.30;;;;;;;25.51;39.09;99844.97;6263407;22;20415;-95
2023/08/13 08:24:41;;;;;;;8.00;3.20;;;;;;;25.59;38.99;99835.72;6267503;22;20006;-96
2023/08/13 08:30:19;;;;;;;5.97;2.50;;;;;;;25.61;38.66;99814.88;6218095;23;19992;-93
2023/08/13 08:32:48;;;;;;;6.35;2.63;;;;;;;25.84;38.20;99827.19;6198759;23;20004;-95
2023/08/13 08:35:17;;;;;;;6.00;2.58;;;;;;;25.93;38.06;99817.56;6228744;23;20011;-95
2023/08/13 08:37:48;;;;;;;3.30;2.60;;;;;;;25.97;37.25;99814.91;6203764;23;20007;-95
2023/08/13 08:40:14;;;;;;;;;;;;;;;26.25;37.28;99836.78;6203092;23;20008;-95
2023/08/13 08:42:41;;;;;;;5.63;2.10;;;;;;;26.15;37.61;99813.31;6230538;23;19912;-94
2023/08/13 08:45:07;;;;;;;2.47;2.00;;;;;;;26.15;36.64;99804.25;6205025;23;20010;-94
2023/08/13 08:47:34;;;;;;;4.35;2.30;;;;;;;26.23;36.84;99800.47;6179641;23;20000;-95
2023/08/13 08:50:05;;;;;;;4.93;2.50;;;;;;;26.34;37.13;99804.22;6205416;23;20087;-94
2023/08/13 08:52:33;;;;;;;4.07;2.50;;;;;;;26.54;37.19;99815.25;6204899;23;20000;-93
2023/08/13 08:55:04;;;;;;;4.97;2.45;;;;;;;26.44;32.80;99800.09;6205854;23;20039;-94
2023/08/13 08:57:32;;;;;;;6.20;2.17;;;;;;;26.71;34.99;99823.13;6230418;23;20008;-92
2023/08/13 08:59:59;;;;;;;4.32;2.50;;;;;;;26.73;34.29;99804.22;6225510;22;20567;-94
2023/08/13 09:02:26;;;;;;;3.22;2.10;;;;;;;26.54;33.86;99798.69;6317891;22;20019;-93
2023/08/13 09:04:59;;;;;;;2.85;2.30;;;;;;;26.77;34.22;99813.38;6295872;22;19999;-93
2023/08/13 09:07:29;;;;;;;3.75;1.95;;;;;;;26.72;33.72;99808.13;6294136;22;20483;-95
2023/08/13 09:09:55;;;;;;;3.55;2.10;;;;;;;26.77;33.32;99794.03;6266981;22;20005;-95
2023/08/13 09:12:28;;;;;;;2.78;2.28;;;;;;;26.74;32.84;99789.22;6267388;22;19999;-95
2023/08/13 09:14:59;;;;;;;4.60;2.20;;;;;;;26.94;33.08;99806.56;6266434;22;20037;-95
2023/08/13 09:17:26;;;;;;;;;;;;;;;26.98;33.17;99810.16;6313884;22;20425;-94
2023/08/13 09:19:58;;;;;;;5.20;2.28;;;;;;;26.88;33.04;99793.41;6320738;22;19903;-93
2023/08/13 09:22:24;;;;;;;3.50;1.98;;;;;;;26.92;33.31;99783.22;6270653;22;20003;-95
2023/08/13 09:24:50;;;;;;;3.10;2.10;;;;;;;26.83;32.71;99783.44;6269778;22;20070;-92
2023/08/13 09:27:16;;;;;;;3.47;2.22;;;;;;;26.88;33.47;99772.09;6297279;22;20030;-94
2023/08/13 09:29:42;;;;;;;2.75;2.00;;;;;;;27.01;32.12;99781.78;6269874;22;20006;-95
2023/08/13 09:32:07;;;;;;;13.13;2.30;;;;;;;27.25;33.24;99795.59;6273379;22;19999;-96
2023/08/13 09:34:36;;;;;;;4.05;2.00;;;;;;;27.18;31.79;99787.97;6270557;22;20002;-93
2023/08/13 09:37:05;;;;;;;4.05;2.17;;;;;;;27.19;31.19;99779.31;6297375;22;20030;-95
2023/08/13 09:39:33;;;;;;;4.00;2.08;;;;;;;27.06;30.89;99764.09;6300494;22;19994;-95
2023/08/13 09:42:00;;;;;;;3.58;2.00;;;;;;;27.30;31.28;99785.03;6297036;22;20026;-95
2023/08/13 09:44:33;;;;;;;3.97;1.88;;;;;;;27.36;31.50;99764.19;6299254;22;20011;-94
2023/08/13 09:47:02;;;;;;;2.88;2.03;;;;;;;27.32;31.40;99773.63;6351682;22;19975;-96
2023/08/13 09:49:32;;;;;;;2.92;1.65;;;;;;;27.15;30.75;99777.66;6273324;22;20018;-95
2023/08/13 09:52:12;;;;;;;9.70;2.30;;;;;;;27.34;30.70;99776.81;6297791;22;20006;-93
2023/08/13 09:54:47;;;;;;;3.58;2.13;;;;;;;27.51;30.58;99787.31;6275560;22;20018;-95
2023/08/13 09:57:17;;;;;;;3.35;2.17;;;;;;;27.51;30.46;99769.94;6297850;22;20389;-94
2023/08/13 09:59:46;;;;;;;2.60;2.10;;;;;;;27.53;30.23;99764.81;6323281;22;19994;-95
2023/08/13 10:02:13;;;;;;;6.20;2.15;;;;;;;27.74;30.59;99778.94;6272263;22;20039;-96
2023/08/13 10:04:39;;;;;;;3.08;2.05;;;;;;;27.54;29.96;99747.06;6270823;22;20007;-95
2023/08/13 10:07:11;;;;;;;3.97;2.10;;;;;;;27.78;29.66;99765.16;6299547;22;20382;-94
2023/08/13 10:09:37;;;;;;;3.85;2.15;;;;;;;27.86;29.14;99764.13;6273870;22;20006;-95
2023/08/13 10:12:05;;;;;;;2.38;2.00;;;;;;;27.81;29.58;99762.44;6271026;22;20063;-95
2023/08/13 10:14:31;;;;;;;3.53;2.35;;;;;;;27.87;30.45;99748.31;6296122;22;20010;-96
2023/08/13 10:17:14;;;;;;;2.85;1.90;;;;;;;27.85;30.37;99748.66;6322300;22;20002;-96
2023/08/13 10:19:43;;;;;;;8.35;2.92;;;;;;;27.68;30.38;99749.22;6273204;22;20352;-94
2023/08/13 10:22:09;;;;;;;3.45;2.42;;;;;;;28.09;30.92;99760.44;6295641;22;20408;-95
2023/08/13 10:24:35;;;;;;;5.05;2.22;;;;;;;28.16;30.71;99750.25;6269107;22;19998;-96
2023/08/13 10:27:24;;;;;;;6.97;2.53;;;;;;;28.33;30.77;99750.84;6269684;22;20019;-95
2023/08/13 10:29:50;;;;;;;4.07;2.20;;;;;;;28.32;30.80;99738.16;6257263;22;20107;-96
2023/08/13 10:32:32;;;;;;;4.18;2.30;;;;;;;28.31;30.55;99736.56;6283601;22;19996;-94
2023/08/13 10:35:19;;;;;;;7.40;2.80;;;;;;;28.38;30.09;99722.78;6234120;22;20477;-95
2023/08/13 10:37:59;;;;;;;2.90;2.15;;;;;;;28.27;30.35;99741.28;6260182;22;20003;-95
2023/08/13 10:40:30;;;;;;;3.67;2.15;;;;;;;28.21;30.77;99715.88;6240610;22;20437;-95
2023/08/13 10:43:01;;;;;;;3.35;2.28;;;;;;;28.26;30.74;99723.84;6260770;22;20456;-96
2023/08/13 10:45:29;;;;;;;2.95;2.03;;;;;;;28.11;30.97;99722.09;6260582;22;20012;-94
2023/08/13 10:47:57;;;;;;;2.80;2.00;;;;;;;28.21;31.14;99715.88;6258850;22;20003;-96
2023/08/13 10:50:30;;;;;;;3.10;2.10;;;;;;;28.25;30.78;99713.94;6258621;22;20011;-95
2023/08/13 10:53:05;;;;;;;3.30;2.25;;;;;;;28.17;31.32;99701.19;6258725;22;20140;-95
2023/08/13 10:55:42;;;;;;;4.38;2.15;;;;;;;28.30;30.71;99713.59;6282635;22;20009;-94
2023/08/13 10:58:08;;;;;;;4.28;2.22;;;;;;;28.30;30.41;99715.56;6257851;22;20038;-96
2023/08/13 11:00:42;;;;;;;2.70;2.30;;;;;;;28.23;30.96;99707.19;6284301;22;20003;-96
2023/08/13 11:03:21;;;;;;;3.17;2.00;;;;;;;28.23;30.67;99699.69;6267664;22;20007;-96
2023/08/13 11:05:47;;;;;;;3.80;2.33;;;;;;;28.64;30.41;99721.06;6271043;22;20003;-96
2023/08/13 11:08:21;;;;;;;2.92;2.22;;;;;;;28.50;30.11;99703.13;6269275;22;20050;-96
2023/08/13 11:10:47;;;;;;;4.38;2.28;;;;;;;28.41;30.34;99691.56;6292968;22;19995;-96
2023/08/13 11:13:13;;;;;;;3.42;2.20;;;;;;;28.77;30.36;99702.97;6269014;22;20075;-95
2023/08/13 11:15:41;;;;;;;3.28;2.17;;;;;;;28.84;30.63;99688.38;6295945;22;19999;-96
2023/08/13 11:18:07;;;;;;;5.13;2.67;;;;;;;28.81;30.58;99690.72;6293184;22;20018;-95
2023/08/13 11:20:34;;;;;;;3.53;2.67;;;;;;;28.67;30.55;99678.75;6294137;22;19998;-95
2023/08/13 11:23:04;;;;;;;5.82;2.42;;;;;;;28.97;29.52;99684.91;6269677;22;20087;-96
2023/08/13 11:25:30;;;;;;;;;;;;;;;29.16;28.85;99680.31;6320031;22;20019;-94
2023/08/13 11:27:57;;;;;;;2.95;2.10;;;;;;;29.24;28.51;99670.84;6294548;22;19917;-95
2023/08/13 11:30:26;;;;;;;3.85;2.00;;;;;;;29.21;27.77;99669.63;6294740;22;19995;-95
2023/08/13 11:32:55;;;;;;;4.07;2.00;;;;;;;29.10;28.17;99662.41;6322630;22;19997;-96
2023/08/13 11:35:23;;;;;;;3.60;2.20;;;;;;;29.18;29.25;99658.53;6325898;22;20311;-95
2023/08/13 11:37:52;;;;;;;2.80;1.95;;;;;;;29.16;28.17;99658.91;6268478;22;20425;-96
2023/08/13 11:40:18;;;;;;;2.92;2.30;;;;;;;29.08;28.08;99643.38;6296190;22;19999;-96
2023/08/13 11:43:11;;;;;;;3.30;2.28;;;;;;;29.23;28.20;99665.69;6323039;22;20003;-95
2023/08/13 11:45:37;;;;;;;4.28;2.40;;;;;;;29.31;28.97;99650.69;6289931;22;20028;-96
2023/08/13 11:48:30;;;;;;;5.50;2.65;;;;;;;29.34;28.96;99655.44;6267492;22;20006;-95
2023/08/13 11:51:16;;;;;;;5.13;2.40;;;;;;;29.25;28.51;99630.03;6299174;22;19998;-95